Time;durP1;ratioP1;P1;durP2;ratioP2;P2;SDS_P1;SDS_P2;PMS_P1;PMS_P2;Temp;Humidity;BMP_temperature;BMP_pressure;BME280_temperature;BME280_humidity;BME280_pressure;Samples;Min_cycle;Max_cycle;Signal;HPM_P1;HPM_P2
2022/04/23 00:01:48;;;;;;;24.63;20.50;;;;;;;11.78;100.00;99278.41;5020180;22;23275;-70
2022/04/23 00:04:14;;;;;;;26.58;21.00;;;;;;;11.45;100.00;99273.00;5023264;28;20452;-71
2022/04/23 00:06:40;;;;;;;24.52;20.95;;;;;;;11.52;100.00;99276.13;5030525;28;20029;-70
2022/04/23 00:09:06;;;;;;;24.58;21.92;;;;;;;10.84;100.00;99164.59;5031430;28;20031;-71
2022/04/23 00:11:32;;;;;;;26.73;21.70;;;;;;;11.13;100.00;99213.31;5031948;28;20124;-71
2022/04/23 00:13:58;;;;;;;28.33;21.77;;;;;;;11.21;100.00;99218.09;5046960;28;20490;-71
2022/04/23 00:16:24;;;;;;;25.88;21.85;;;;;;;11.37;100.00;99261.53;5046592;28;20120;-72
2022/04/23 00:18:50;;;;;;;24.60;21.67;;;;;;;11.00;100.00;99206.28;5031525;28;20113;-71
2022/04/23 00:21:16;;;;;;;29.35;22.42;;;;;;;11.17;100.00;99257.28;5031061;28;20029;-71
2022/04/23 00:23:43;;;;;;;27.35;23.23;;;;;;;11.06;100.00;99203.47;5029899;28;20525;-70
2022/04/23 00:26:08;;;;;;;32.70;22.48;;;;;;;11.29;100.00;99274.56;5029733;28;20025;-71
2022/04/23 00:28:34;;;;;;;31.40;23.63;;;;;;;11.04;100.00;99200.19;5031308;28;20037;-71
2022/04/23 00:31:00;;;;;;;32.08;24.48;;;;;;;11.30;100.00;99222.78;5031588;28;20116;-70
2022/04/23 00:33:26;;;;;;;29.60;23.02;;;;;;;10.76;100.00;99141.19;5029882;28;20033;-71
2022/04/23 00:35:52;;;;;;;29.38;23.77;;;;;;;11.31;100.00;99260.03;5031055;28;20033;-71
2022/04/23 00:38:17;;;;;;;31.38;23.95;;;;;;;11.21;100.00;99254.53;5031104;28;20040;-71
2022/04/23 00:40:44;;;;;;;33.05;24.70;;;;;;;11.18;100.00;99241.13;5029771;28;20044;-71
2022/04/23 00:43:27;;;;;;;31.88;23.95;;;;;;;10.93;100.00;99205.72;5029570;28;20037;-71
2022/04/23 00:45:53;;;;;;;29.92;25.02;;;;;;;10.92;100.00;99198.97;5030112;28;20057;-71
2022/04/23 00:48:18;;;;;;;29.92;24.85;;;;;;;10.95;100.00;99221.72;5031021;28;20033;-71
2022/04/23 00:50:44;;;;;;;33.53;25.20;;;;;;;10.87;100.00;99251.75;5031360;28;20108;-71
2022/04/23 00:53:11;;;;;;;29.65;25.98;;;;;;;11.02;100.00;99240.94;5029590;28;20045;-71
2022/04/23 00:55:37;;;;;;;31.75;25.77;;;;;;;11.08;100.00;99243.22;5046158;28;20036;-71
2022/04/23 00:58:03;;;;;;;31.48;27.02;;;;;;;10.63;100.00;99173.94;5030865;28;20411;-71
2022/04/23 01:00:29;;;;;;;30.10;26.02;;;;;;;10.90;100.00;99193.13;5030770;28;20050;-71
2022/04/23 01:02:54;;;;;;;35.60;27.27;;;;;;;11.07;100.00;99243.31;5048388;28;20075;-71
2022/04/23 01:05:23;;;;;;;31.00;27.00;;;;;;;11.21;100.00;99243.56;5070846;28;20121;-71
2022/04/23 01:07:50;;;;;;;37.60;27.05;;;;;;;10.86;100.00;99190.78;5071108;28;20028;-71
2022/04/23 01:10:15;;;;;;;35.60;29.08;;;;;;;10.94;100.00;99237.88;5052770;28;20029;-71
2022/04/23 01:12:42;;;;;;;38.55;29.35;;;;;;;10.77;100.00;99186.91;5070882;28;20469;-71
2022/04/23 01:15:13;;;;;;;34.08;27.73;;;;;;;11.20;100.00;99214.72;5070903;28;20024;-71
2022/04/23 01:17:40;;;;;;;35.10;28.65;;;;;;;11.48;100.00;99205.88;5071130;28;20110;-71
2022/04/23 01:20:06;;;;;;;36.78;28.63;;;;;;;11.45;100.00;99191.56;5070924;28;20478;-71
2022/04/23 01:22:33;;;;;;;35.28;28.17;;;;;;;11.44;100.00;99182.31;5052663;28;20024;-71
2022/04/23 01:24:58;;;;;;;37.55;28.75;;;;;;;11.37;100.00;99173.28;5052949;28;20021;-71
2022/04/23 01:27:29;;;;;;;34.45;28.15;;;;;;;11.47;100.00;99225.41;5052931;28;20078;-72
2022/04/23 01:29:58;;;;;;;34.38;27.60;;;;;;;11.46;100.00;99215.31;5052427;28;20028;-71
2022/04/23 01:32:24;;;;;;;36.92;27.35;;;;;;;11.28;100.00;99197.41;5070315;28;20453;-71
2022/04/23 01:34:49;;;;;;;36.53;29.52;;;;;;;11.12;100.00;99208.31;5070844;28;20111;-72
2022/04/23 01:37:17;;;;;;;37.05;28.98;;;;;;;11.08;100.00;99211.88;5052804;28;20115;-72
2022/04/23 01:39:44;;;;;;;33.35;28.25;;;;;;;10.76;100.00;99159.81;5070845;28;20131;-71
2022/04/23 01:42:10;;;;;;;37.28;30.10;;;;;;;10.89;100.00;99200.84;5070625;28;20024;-71
2022/04/23 01:44:35;;;;;;;34.88;28.42;;;;;;;11.00;100.00;99239.34;5070360;28;20482;-71
2022/04/23 01:47:01;;;;;;;36.60;28.45;;;;;;;10.79;100.00;99235.97;5070635;28;20024;-71
2022/04/23 01:49:26;;;;;;;36.63;27.70;;;;;;;10.46;100.00;99166.16;5069634;28;20043;-72
2022/04/23 01:51:52;;;;;;;33.53;28.23;;;;;;;10.05;100.00;99129.72;5055115;28;20033;-71
2022/04/23 01:54:17;;;;;;;35.40;28.65;;;;;;;10.43;100.00;99186.63;5073981;28;20032;-71
2022/04/23 01:56:42;;;;;;;38.88;28.77;;;;;;;10.53;100.00;99185.38;5074102;28;20020;-70
2022/04/23 01:59:08;;;;;;;37.88;28.80;;;;;;;10.22;100.00;99146.84;5073960;28;20071;-71
2022/04/23 02:01:35;;;;;;;36.50;29.20;;;;;;;10.30;100.00;99160.09;5056053;28;20171;-72
2022/04/23 02:04:01;;;;;;;32.55;28.02;;;;;;;10.71;100.00;99224.47;5055780;28;20140;-71
2022/04/23 02:06:28;;;;;;;35.22;28.35;;;;;;;10.75;100.00;99231.06;5055867;28;20039;-71
2022/04/23 02:08:54;;;;;;;35.17;27.58;;;;;;;10.80;100.00;99230.00;5073654;28;20040;-71
2022/04/23 02:11:19;;;;;;;34.63;27.70;;;;;;;10.89;100.00;99213.53;5055150;28;20029;-71
2022/04/23 02:13:46;;;;;;;37.60;28.02;;;;;;;10.83;100.00;99222.25;5073596;28;20025;-72
2022/04/23 02:16:11;;;;;;;33.55;28.13;;;;;;;10.89;100.00;99211.00;5073358;28;20040;-71
2022/04/23 02:18:39;;;;;;;34.30;27.77;;;;;;;10.50;100.00;99156.72;5073302;28;20413;-70
2022/04/23 02:21:05;;;;;;;37.60;29.48;;;;;;;10.92;100.00;99221.88;5073275;28;20043;-71
2022/04/23 02:23:31;;;;;;;37.47;29.25;;;;;;;10.66;100.00;99211.09;5055255;28;20024;-71
2022/04/23 02:25:57;;;;;;;33.60;28.65;;;;;;;10.55;100.00;99178.53;5072992;28;20097;-70
2022/04/23 02:28:23;;;;;;;35.80;29.23;;;;;;;10.72;100.00;99229.47;5073161;28;20029;-71
2022/04/23 02:30:48;;;;;;;35.45;29.08;;;;;;;10.44;100.00;99162.88;5073426;28;20496;-71
2022/04/23 02:33:14;;;;;;;35.55;28.23;;;;;;;10.67;100.00;99195.81;5054913;28;20051;-71
2022/04/23 02:35:39;;;;;;;35.97;28.73;;;;;;;11.31;100.00;99224.44;5072921;28;20040;-71
2022/04/23 02:38:05;;;;;;;36.75;28.52;;;;;;;11.10;100.00;99222.81;5055280;28;20028;-71
2022/04/23 02:40:31;;;;;;;39.00;29.45;;;;;;;11.07;100.00;99235.66;5072963;28;20486;-71
2022/04/23 02:42:57;;;;;;;37.45;30.10;;;;;;;10.96;100.00;99247.97;5072750;28;20468;-70
2022/04/23 02:45:25;;;;;;;37.70;30.35;;;;;;;10.69;100.00;99196.56;5072515;28;20076;-71
2022/04/23 02:47:53;;;;;;;37.75;31.50;;;;;;;10.80;100.00;99191.84;5072766;28;20039;-71
2022/04/23 02:50:28;;;;;;;35.67;30.45;;;;;;;11.23;100.00;99250.19;5072691;28;20029;-71
2022/04/23 02:52:56;;;;;;;36.60;30.65;;;;;;;11.07;100.00;99264.44;5072289;28;20052;-71
2022/04/23 02:55:23;;;;;;;41.60;31.00;;;;;;;10.91;100.00;99250.75;5072448;28;20563;-72
2022/04/23 02:57:48;;;;;;;39.35;31.27;;;;;;;10.35;100.00;99146.28;5054444;28;20028;-73
2022/04/23 03:00:14;;;;;;;38.63;30.60;;;;;;;11.03;100.00;99249.41;5054663;28;20032;-71
2022/04/23 03:02:40;;;;;;;39.65;31.13;;;;;;;10.74;100.00;99188.75;5072096;28;20097;-72
2022/04/23 03:05:08;;;;;;;37.50;29.98;;;;;;;10.71;100.00;99209.22;5072433;28;20101;-72
2022/04/23 03:07:35;;;;;;;37.40;30.13;;;;;;;10.67;100.00;99184.81;5072451;28;20492;-73
2022/04/23 03:10:02;;;;;;;38.38;30.05;;;;;;;10.62;100.00;99179.09;5072708;28;20111;-72
2022/04/23 03:12:28;;;;;;;40.20;30.00;;;;;;;10.86;100.00;99204.31;5072100;28;20553;-72
2022/04/23 03:14:53;;;;;;;38.78;29.10;;;;;;;10.66;100.00;99147.56;5072325;28;20116;-71
2022/04/23 03:17:19;;;;;;;37.03;29.13;;;;;;;11.11;100.00;99211.75;5072396;28;20031;-71
2022/04/23 03:19:46;;;;;;;36.35;28.60;;;;;;;10.93;100.00;99180.31;5072461;28;20032;-71
2022/04/23 03:22:13;;;;;;;37.47;29.27;;;;;;;11.29;100.00;99244.84;5072089;28;20039;-71
2022/04/23 03:24:39;;;;;;;36.13;29.25;;;;;;;11.11;100.00;99214.31;5072510;28;20093;-70
2022/04/23 03:27:06;;;;;;;34.80;29.08;;;;;;;11.35;100.00;99231.03;5053734;28;20464;-70
2022/04/23 03:29:32;;;;;;;39.13;28.35;;;;;;;11.24;100.00;99217.97;5071750;28;20111;-70
2022/04/23 03:31:58;;;;;;;36.35;30.58;;;;;;;11.02;100.00;99195.16;5053922;28;20051;-72
2022/04/23 03:34:23;;;;;;;36.40;28.75;;;;;;;11.26;100.00;99245.00;5071850;28;20475;-71
2022/04/23 03:36:49;;;;;;;32.22;26.75;;;;;;;10.80;100.00;99178.31;5054072;28;20029;-71
2022/04/23 03:39:15;;;;;;;35.70;26.63;;;;;;;10.93;100.00;99236.25;5071780;28;20056;-72
2022/04/23 03:41:40;;;;;;;36.10;27.90;;;;;;;10.84;100.00;99240.84;5071380;28;20054;-69
2022/04/23 03:44:06;;;;;;;54.35;42.65;;;;;;;10.89;100.00;99244.06;5053355;28;20397;-69
2022/04/23 03:46:31;;;;;;;59.40;44.53;;;;;;;10.76;100.00;99240.34;5071345;28;20123;-69
2022/04/23 03:48:58;;;;;;;52.08;40.45;;;;;;;9.97;100.00;99119.03;5071080;28;20036;-69
2022/04/23 03:51:23;;;;;;;162.68;120.90;;;;;;;10.75;100.00;99195.50;5053257;28;20036;-69
2022/04/23 03:53:49;;;;;;;47.00;36.50;;;;;;;10.92;100.00;99233.75;5071536;28;20029;-69
2022/04/23 03:56:15;;;;;;;40.92;31.27;;;;;;;10.49;100.00;99150.81;5053130;28;20036;-69
2022/04/23 03:58:41;;;;;;;39.55;31.50;;;;;;;10.27;100.00;99185.59;5070768;28;20489;-70
2022/04/23 04:01:07;;;;;;;42.40;31.33;;;;;;;10.70;100.00;99261.75;5048320;28;20037;-69
2022/04/23 04:03:33;;;;;;;35.67;28.88;;;;;;;10.23;100.00;99149.31;5070382;28;20052;-70
2022/04/23 04:05:59;;;;;;;33.28;27.88;;;;;;;10.97;100.00;99236.94;5070637;28;20027;-69
2022/04/23 04:08:25;;;;;;;34.40;29.15;;;;;;;10.78;100.00;99225.84;5070662;28;20038;-69
2022/04/23 04:10:50;;;;;;;35.35;28.30;;;;;;;10.62;100.00;99238.34;5051761;28;20029;-69
2022/04/23 04:13:15;;;;;;;32.05;26.67;;;;;;;10.62;100.00;99207.06;5063244;28;20055;-69
2022/04/23 04:15:43;;;;;;;33.08;28.45;;;;;;;11.13;100.00;99227.78;5052199;28;20422;-70
2022/04/23 04:18:11;;;;;;;35.58;27.75;;;;;;;11.14;100.00;99232.78;5070636;28;20422;-70
2022/04/23 04:20:37;;;;;;;43.08;30.77;;;;;;;10.88;100.00;99191.53;5052004;28;20032;-69
2022/04/23 04:23:02;;;;;;;35.65;28.55;;;;;;;10.95;100.00;99168.31;5052434;28;20035;-70
2022/04/23 04:25:28;;;;;;;37.50;28.55;;;;;;;11.41;100.00;99228.22;5069806;28;20040;-69
2022/04/23 04:27:53;;;;;;;40.17;28.38;;;;;;;11.37;100.00;99226.72;5063567;28;20024;-69
2022/04/23 04:30:19;;;;;;;35.78;26.63;;;;;;;11.61;100.00;99218.00;5052605;28;20024;-72
2022/04/23 04:32:44;;;;;;;30.52;26.70;;;;;;;11.50;100.00;99182.03;5070793;28;20029;-71
2022/04/23 04:35:11;;;;;;;40.08;30.15;;;;;;;12.06;100.00;99236.31;5053561;28;20068;-72
2022/04/23 04:37:37;;;;;;;33.25;25.48;;;;;;;12.16;100.00;99247.75;5051016;28;20032;-72
2022/04/23 04:40:03;;;;;;;30.55;26.08;;;;;;;11.68;100.00;99188.88;5052732;28;20045;-73
2022/04/23 04:42:30;;;;;;;34.53;27.08;;;;;;;11.66;100.00;99185.56;5067976;28;20486;-74
2022/04/23 04:44:55;;;;;;;30.25;25.05;;;;;;;11.96;100.00;99250.38;5066280;28;20517;-74
2022/04/23 04:47:21;;;;;;;30.80;25.45;;;;;;;11.73;100.00;99161.47;5057602;28;20164;-78
2022/04/23 04:49:46;;;;;;;28.75;24.58;;;;;;;12.14;100.00;99192.69;5084044;28;20406;-78
2022/04/23 04:52:12;;;;;;;32.75;24.73;;;;;;;12.41;100.00;99187.97;5080480;28;20024;-75
2022/04/23 04:54:37;;;;;;;32.17;24.90;;;;;;;12.67;100.00;99241.94;5053380;28;20035;-72
2022/04/23 04:57:03;;;;;;;29.30;24.33;;;;;;;12.77;100.00;99204.88;5071470;28;20021;-71
2022/04/23 04:59:32;;;;;;;82.35;66.55;;;;;;;13.41;100.00;99273.94;5069820;28;20040;-72
2022/04/23 05:01:59;;;;;;;29.45;23.73;;;;;;;13.40;100.00;99236.56;5070741;28;20936;-72
2022/04/23 05:04:25;;;;;;;29.02;24.15;;;;;;;13.73;100.00;99285.91;5071429;28;20040;-72
2022/04/23 05:06:51;;;;;;;29.85;24.52;;;;;;;13.77;100.00;99299.31;5053052;28;20032;-73
2022/04/23 05:09:16;;;;;;;30.65;25.25;;;;;;;13.71;100.00;99297.91;5069604;28;20040;-71
2022/04/23 05:11:42;;;;;;;31.40;25.27;;;;;;;13.33;100.00;99229.31;5070431;28;20063;-73
2022/04/23 05:14:07;;;;;;;29.30;24.48;;;;;;;13.53;100.00;99260.56;5068819;28;20119;-70
2022/04/23 05:16:39;;;;;;;28.25;24.25;;;;;;;13.58;100.00;99211.81;5070454;28;20036;-69
2022/04/23 05:19:04;;;;;;;64.63;51.30;;;;;;;14.06;100.00;99270.53;5068809;28;20518;-72
2022/04/23 05:21:30;;;;;;;25.92;22.65;;;;;;;13.77;100.00;99248.22;5059089;28;20043;-71
2022/04/23 05:23:58;;;;;;;28.05;23.13;;;;;;;14.56;100.00;99303.59;5050842;28;20483;-71
2022/04/23 05:26:23;;;;;;;22.83;19.98;;;;;;;14.31;100.00;99303.28;5058593;28;20028;-70
2022/04/23 05:28:49;;;;;;;27.60;21.77;;;;;;;14.28;100.00;99258.25;5059993;28;20089;-74
2022/04/23 05:31:14;;;;;;;40.28;25.92;;;;;;;14.95;100.00;99273.25;5076642;28;20081;-72
2022/04/23 05:33:40;;;;;;;23.02;18.83;;;;;;;15.07;100.00;99252.06;5094699;28;20405;-71
2022/04/23 05:36:06;;;;;;;29.73;18.83;;;;;;;15.10;100.00;99253.59;5094676;28;20043;-71
2022/04/23 05:38:34;;;;;;;21.88;18.83;;;;;;;15.38;100.00;99280.06;5094432;28;20036;-72
2022/04/23 05:41:00;;;;;;;22.73;19.38;;;;;;;15.65;100.00;99307.59;5093607;28;20028;-70
2022/04/23 05:43:25;;;;;;;23.95;17.27;;;;;;;15.16;100.00;99273.72;5076133;28;20032;-71
2022/04/23 05:45:51;;;;;;;23.35;17.33;;;;;;;15.43;100.00;99249.09;5077214;28;20029;-74
2022/04/23 05:48:16;;;;;;;24.80;20.25;;;;;;;15.63;100.00;99285.41;5074161;28;20038;-70
2022/04/23 05:50:41;;;;;;;22.80;19.42;;;;;;;16.05;100.00;99286.28;5073752;28;20025;-72
2022/04/23 05:53:07;;;;;;;23.83;18.50;;;;;;;15.61;100.00;99297.50;5073529;28;20025;-72
2022/04/23 05:55:32;;;;;;;22.98;18.10;;;;;;;15.67;100.00;99241.69;5071956;28;20063;-71
2022/04/23 05:57:58;;;;;;;27.75;20.52;;;;;;;15.77;100.00;99281.22;5071976;28;20028;-72
2022/04/23 06:00:23;;;;;;;27.27;20.42;;;;;;;15.20;100.00;99250.41;5073469;28;20021;-74
2022/04/23 06:02:49;;;;;;;22.38;20.08;;;;;;;15.20;100.00;99190.69;5072925;28;20131;-70
2022/04/23 06:05:14;;;;;;;22.85;18.67;;;;;;;15.60;100.00;99242.06;5072960;28;20139;-71
2022/04/23 06:07:39;;;;;;;22.45;19.38;;;;;;;16.01;100.00;99228.44;5054136;28;20493;-71
2022/04/23 06:10:06;;;;;;;22.90;19.65;;;;;;;16.16;100.00;99296.75;5051644;28;20035;-71
2022/04/23 06:12:32;;;;;;;25.20;20.20;;;;;;;16.32;100.00;99243.56;5052749;28;20025;-72
2022/04/23 06:14:58;;;;;;;26.27;19.60;;;;;;;16.21;100.00;99282.69;5052947;28;20037;-72
2022/04/23 06:17:28;;;;;;;22.70;17.67;;;;;;;16.29;100.00;99282.22;5051566;28;20086;-72
2022/04/23 06:19:55;;;;;;;25.42;19.80;;;;;;;16.34;100.00;99293.84;5052546;28;20090;-74
2022/04/23 06:22:22;;;;;;;24.55;19.38;;;;;;;16.40;100.00;99249.84;5035512;28;20021;-72
2022/04/23 06:24:47;;;;;;;22.67;20.02;;;;;;;17.04;100.00;99238.00;5035448;28;20021;-73
2022/04/23 06:27:13;;;;;;;25.05;19.55;;;;;;;17.26;100.00;99263.91;5053595;28;20024;-73
2022/04/23 06:29:39;;;;;;;23.27;19.05;;;;;;;17.49;100.00;99300.97;5053383;28;20021;-73
2022/04/23 06:32:05;;;;;;;20.85;17.92;;;;;;;17.17;100.00;99249.13;5065321;28;20048;-74
2022/04/23 06:34:30;;;;;;;19.83;16.98;;;;;;;17.68;100.00;99291.06;5072770;28;20898;-73
2022/04/23 06:36:56;;;;;;;18.80;14.82;;;;;;;17.78;100.00;99256.94;5072801;28;20448;-75
2022/04/23 06:39:21;;;;;;;16.00;13.13;;;;;;;17.92;100.00;99253.41;5073761;28;20044;-74
2022/04/23 06:41:47;;;;;;;17.77;14.20;;;;;;;18.55;100.00;99289.22;5072316;28;20483;-75
2022/04/23 06:44:13;;;;;;;17.42;13.60;;;;;;;17.91;100.00;99221.69;5055296;28;20024;-74
2022/04/23 06:46:38;;;;;;;13.80;9.23;;;;;;;18.68;100.00;99259.06;5055037;28;20402;-73
2022/04/23 06:49:05;;;;;;;15.43;10.85;;;;;;;19.46;100.00;99267.84;5054158;28;20069;-72
2022/04/23 06:51:37;;;;;;;14.00;6.72;;;;;;;18.83;100.00;99286.31;5072442;28;20089;-72
2022/04/23 06:54:02;;;;;;;;;;;;;;;19.38;100.00;99299.38;5073096;28;20486;-71
2022/04/23 06:56:28;;;;;;;11.18;7.32;;;;;;;18.94;100.00;99294.06;5072277;28;19954;-71
2022/04/23 06:58:54;;;;;;;10.98;7.00;;;;;;;19.65;100.00;99278.41;5072073;28;20067;-71
2022/04/23 07:01:19;;;;;;;8.88;6.28;;;;;;;19.97;100.00;99294.81;5071178;28;20047;-71
2022/04/23 07:03:44;;;;;;;8.55;5.45;;;;;;;19.85;100.00;99285.44;5053689;28;20080;-71
2022/04/23 07:06:11;;;;;;;7.72;4.72;;;;;;;19.95;97.20;99286.38;5072162;28;20764;-72
2022/04/23 07:08:39;;;;;;;8.50;4.95;;;;;;;19.79;100.00;99283.31;5054381;28;20024;-70
2022/04/23 07:11:04;;;;;;;8.07;5.13;;;;;;;20.64;94.68;99288.59;5070849;28;20029;-71
2022/04/23 07:13:30;;;;;;;8.25;5.30;;;;;;;20.22;95.40;99289.44;5071939;28;20029;-71
2022/04/23 07:15:55;;;;;;;8.98;4.20;;;;;;;20.11;90.90;99216.31;5072371;28;20032;-71
2022/04/23 07:18:21;;;;;;;7.95;4.20;;;;;;;20.40;88.26;99248.41;5071575;28;20517;-73
2022/04/23 07:20:46;;;;;;;8.27;4.30;;;;;;;21.08;88.52;99300.53;5072114;28;20043;-71
2022/04/23 07:25:55;;;;;;;6.07;4.40;;;;;;;20.62;91.01;99267.22;5062373;28;20047;-71
2022/04/23 07:28:21;;;;;;;8.35;4.88;;;;;;;20.39;94.59;99219.19;5052432;28;20033;-71
2022/04/23 07:30:47;;;;;;;6.72;5.20;;;;;;;19.75;96.65;99212.25;5053686;28;20029;-71
2022/04/23 07:37:28;;;;;;;7.95;5.05;;;;;;;20.45;97.99;99309.09;5056692;28;20060;-71
2022/04/23 07:38:42;;;;;;;8.38;4.45;;;;;;;21.53;90.30;99311.44;5051360;28;20543;-72
2022/04/23 07:41:08;;;;;;;7.88;4.55;;;;;;;20.78;91.69;99297.00;5033523;28;20029;-73
2022/04/23 07:43:34;;;;;;;7.90;4.35;;;;;;;21.29;87.81;99305.72;5050233;28;20414;-70
2022/04/23 07:45:59;;;;;;;8.65;5.63;;;;;;;21.95;87.77;99301.81;5050990;28;20033;-70
2022/04/23 07:48:24;;;;;;;9.07;4.30;;;;;;;21.85;84.82;99301.78;5050745;28;20102;-71
2022/04/23 07:50:50;;;;;;;9.02;5.13;;;;;;;21.51;82.12;99308.94;5051774;28;20045;-70
2022/04/23 07:53:15;;;;;;;8.38;3.78;;;;;;;20.67;83.89;99298.69;5052810;28;20028;-70
2022/04/23 07:55:41;;;;;;;7.38;4.18;;;;;;;20.86;84.99;99235.19;5049684;28;20072;-70
2022/04/23 07:58:09;;;;;;;8.57;4.30;;;;;;;21.25;79.46;99253.41;5050050;28;20116;-70
2022/04/23 08:00:35;;;;;;;6.15;3.67;;;;;;;21.75;77.84;99313.84;5069036;28;20407;-70
2022/04/23 08:03:04;;;;;;;6.47;4.22;;;;;;;21.32;78.79;99314.03;5071343;28;20524;-70
2022/04/23 08:05:30;;;;;;;6.10;4.47;;;;;;;21.48;86.81;99313.56;5053385;28;20032;-70
2022/04/23 08:07:56;;;;;;;5.70;4.13;;;;;;;19.28;94.89;99277.75;5070524;28;20037;-71
2022/04/23 08:10:22;;;;;;;5.20;3.83;;;;;;;20.88;90.70;99298.69;5070825;28;20032;-71
2022/04/23 08:12:47;;;;;;;10.65;4.15;;;;;;;21.31;81.62;99259.84;5053569;28;20406;-71
2022/04/23 08:15:13;;;;;;;6.40;3.83;;;;;;;20.50;85.02;99299.19;5071057;28;20470;-71
2022/04/23 08:17:39;;;;;;;8.30;3.80;;;;;;;21.33;84.65;99313.06;5053376;28;20078;-71
2022/04/23 08:20:06;;;;;;;7.78;3.88;;;;;;;21.73;82.96;99256.19;5070956;28;20447;-71
2022/04/23 08:22:31;;;;;;;6.80;4.10;;;;;;;21.53;80.90;99257.09;5052564;28;20050;-71
2022/04/23 08:24:56;;;;;;;9.25;4.80;;;;;;;23.10;76.97;99287.22;5053073;28;20074;-71
2022/04/23 08:27:22;;;;;;;9.75;4.18;;;;;;;22.72;74.76;99314.00;5052735;28;20016;-71
2022/04/23 08:32:31;;;;;;;7.13;3.80;;;;;;;23.02;76.07;99281.91;5071017;28;20039;-72
2022/04/23 08:34:57;;;;;;;6.75;4.65;;;;;;;21.86;75.94;99249.06;5070726;28;20032;-72
2022/04/23 08:37:24;;;;;;;7.60;4.32;;;;;;;22.87;73.75;99320.44;5069656;28;20535;-71
2022/04/23 08:39:50;;;;;;;9.75;3.85;;;;;;;23.05;76.53;99297.22;5070983;28;20025;-71
2022/04/23 08:42:17;;;;;;;6.60;3.58;;;;;;;22.39;75.46;99273.72;5056395;28;20025;-71
2022/04/23 08:44:43;;;;;;;6.00;3.50;;;;;;;22.82;73.35;99267.34;5050796;28;20033;-71
2022/04/23 08:47:11;;;;;;;11.13;4.85;;;;;;;22.49;72.87;99299.63;5049334;28;20392;-71
2022/04/23 08:49:40;;;;;;;8.10;4.15;;;;;;;23.18;74.73;99301.16;5050556;28;20029;-71
2022/04/23 08:52:08;;;;;;;13.05;8.88;;;;;;;21.94;77.57;99306.19;5050572;28;20024;-71
2022/04/23 08:54:34;;;;;;;10.45;5.95;;;;;;;23.29;74.38;99300.19;5048953;28;20021;-72
2022/04/23 08:56:59;;;;;;;7.13;4.15;;;;;;;22.95;74.37;99266.13;5032536;28;20033;-72
2022/04/23 08:59:26;;;;;;;11.18;3.78;;;;;;;22.97;78.45;99250.41;5068377;28;20024;-71
2022/04/23 09:01:52;;;;;;;7.38;4.13;;;;;;;22.57;79.12;99298.94;5074935;28;20478;-71
2022/04/23 09:04:17;;;;;;;9.90;4.13;;;;;;;22.58;79.94;99296.25;5074800;28;20031;-71
2022/04/23 09:06:47;;;;;;;8.75;4.45;;;;;;;23.18;79.51;99289.94;5074334;28;20467;-71
2022/04/23 09:09:19;;;;;;;9.75;4.43;;;;;;;23.07;79.73;99265.00;5074672;28;20112;-71
2022/04/23 09:11:49;;;;;;;8.77;4.97;;;;;;;23.21;78.38;99306.06;5074443;28;20024;-71
2022/04/23 09:14:31;;;;;;;11.73;4.60;;;;;;;22.46;79.80;99301.69;5056785;28;20056;-72
2022/04/23 09:25:35;;;;;;;7.28;3.50;;;;;;;21.93;78.44;99295.94;5067160;28;20093;-69
2022/04/23 09:28:20;;;;;;;5.72;4.00;;;;;;;23.73;76.37;99307.31;5071567;28;20137;-70
2022/04/23 09:30:47;;;;;;;7.97;3.88;;;;;;;22.79;78.35;99275.41;5036389;28;20167;-68
2022/04/23 09:33:13;;;;;;;9.40;4.10;;;;;;;22.45;76.37;99287.91;5053543;28;20040;-69
2022/04/23 09:35:57;;;;;;;10.27;5.60;;;;;;;24.09;74.70;99290.91;5063859;28;20032;-69
2022/04/23 09:38:24;;;;;;;13.70;10.65;;;;;;;23.79;74.25;99254.81;5073928;28;20025;-69
2022/04/23 09:40:51;;;;;;;7.03;3.72;;;;;;;24.10;70.85;99299.53;5074011;28;20082;-70
2022/04/23 09:43:28;;;;;;;7.75;4.03;;;;;;;23.36;72.93;99303.88;5073815;28;20478;-69
2022/04/23 09:46:00;;;;;;;7.63;3.80;;;;;;;22.77;72.96;99295.44;5070736;28;20064;-69
2022/04/23 09:48:25;;;;;;;5.35;3.40;;;;;;;23.32;73.73;99292.13;5073591;28;20405;-71
2022/04/23 09:50:51;;;;;;;6.93;4.10;;;;;;;23.90;71.18;99283.19;5074296;28;20482;-70
2022/04/23 09:53:20;;;;;;;7.75;3.70;;;;;;;23.28;71.13;99291.59;5073468;28;20795;-72
2022/04/23 09:55:48;;;;;;;7.05;3.88;;;;;;;23.52;76.16;99293.72;5073663;28;20031;-69
2022/04/23 09:58:16;;;;;;;6.07;3.50;;;;;;;23.31;73.49;99297.44;5074030;28;20032;-70
2022/04/23 10:00:47;;;;;;;10.30;4.10;;;;;;;23.47;74.80;99282.16;5072830;28;20482;-71
2022/04/23 10:03:36;;;;;;;;;;;;;;;24.72;70.08;99281.34;5074262;28;20051;-69
2022/04/23 10:06:02;;;;;;;8.88;4.40;;;;;;;24.59;69.12;99282.66;5055782;28;19940;-72
2022/04/23 10:08:30;;;;;;;5.50;3.80;;;;;;;22.75;71.64;99261.06;5073394;28;20043;-71
2022/04/23 10:11:23;;;;;;;6.20;3.90;;;;;;;23.31;71.45;99251.59;5073236;28;20082;-73
2022/04/23 10:13:56;;;;;;;8.15;3.70;;;;;;;24.07;68.41;99253.03;5056074;28;20028;-71
2022/04/23 10:16:22;;;;;;;6.68;4.00;;;;;;;24.88;65.91;99291.88;5055746;28;20028;-72
2022/04/23 10:18:48;;;;;;;6.55;3.60;;;;;;;24.40;66.69;99244.63;5073525;28;20051;-72
2022/04/23 10:21:21;;;;;;;7.18;4.05;;;;;;;23.61;67.18;99272.09;5055661;28;20402;-72
2022/04/23 10:24:36;;;;;;;6.10;3.63;;;;;;;24.18;67.01;99291.84;5073521;28;20036;-71
2022/04/23 10:27:11;;;;;;;8.07;3.70;;;;;;;25.26;65.20;99227.41;5011231;28;20084;-71
2022/04/23 10:29:38;;;;;;;6.10;3.60;;;;;;;23.58;67.16;99298.34;5046685;28;20501;-72
2022/04/23 10:32:16;;;;;;;6.93;3.95;;;;;;;24.85;65.65;99297.41;5055073;28;20029;-71
2022/04/23 10:34:43;;;;;;;6.32;3.72;;;;;;;25.61;64.27;99251.53;5055325;28;20036;-71
2022/04/23 10:37:27;;;;;;;5.22;4.05;;;;;;;25.40;61.74;99278.94;5052909;28;20055;-72
2022/04/23 10:39:52;;;;;;;8.43;4.28;;;;;;;24.81;64.58;99305.63;5065953;28;20028;-71
2022/04/23 10:42:22;;;;;;;6.68;3.85;;;;;;;25.17;63.10;99280.41;5072824;28;20032;-72
2022/04/23 10:44:49;;;;;;;10.82;4.20;;;;;;;24.94;64.04;99293.06;5072551;28;20036;-73
2022/04/23 10:47:16;;;;;;;6.45;4.10;;;;;;;24.52;64.27;99258.22;5072631;28;20064;-71
2022/04/23 10:49:42;;;;;;;5.50;4.05;;;;;;;25.41;64.14;99252.78;5051532;28;20037;-71
2022/04/23 10:52:08;;;;;;;8.43;4.13;;;;;;;25.25;63.30;99255.25;5053093;28;20051;-72
2022/04/23 10:54:39;;;;;;;7.15;4.10;;;;;;;26.22;63.57;99295.63;5038886;28;20482;-70
2022/04/23 10:57:15;;;;;;;5.97;3.88;;;;;;;24.98;64.08;99250.16;5055515;28;20533;-71
2022/04/23 10:59:44;;;;;;;5.35;4.20;;;;;;;25.95;63.38;99290.59;5056270;28;20495;-71
2022/04/23 11:02:19;;;;;;;29.70;23.60;;;;;;;25.32;63.44;99297.06;5060775;28;20060;-73
2022/04/23 11:13:35;;;;;;;7.07;3.75;;;;;;;25.36;63.93;99294.03;5072476;28;20173;-70
2022/04/23 11:16:13;;;;;;;10.52;4.40;;;;;;;25.17;65.01;99259.56;5056317;28;20127;-71
2022/04/23 11:18:40;;;;;;;6.97;3.80;;;;;;;25.53;64.75;99259.31;5051710;28;20033;-71
2022/04/23 11:21:09;;;;;;;9.20;4.15;;;;;;;25.76;64.85;99277.81;5052096;28;20082;-71
2022/04/23 11:23:37;;;;;;;5.50;3.92;;;;;;;24.94;64.94;99254.88;5052396;28;20033;-71
2022/04/23 11:26:02;;;;;;;9.57;3.90;;;;;;;25.22;66.06;99268.53;5052175;28;20071;-71
2022/04/23 11:28:29;;;;;;;6.78;3.90;;;;;;;25.11;64.42;99265.38;5052130;28;20068;-70
2022/04/23 11:30:57;;;;;;;7.25;4.35;;;;;;;25.03;66.90;99253.16;5052339;28;20033;-70
2022/04/23 11:33:23;;;;;;;5.75;4.13;;;;;;;25.17;65.78;99268.22;5061837;28;20460;-71
2022/04/23 11:35:48;;;;;;;6.40;4.28;;;;;;;25.30;63.35;99226.97;5070848;28;20175;-71
2022/04/23 11:38:21;;;;;;;6.20;3.88;;;;;;;24.98;64.58;99207.75;5054373;28;20074;-73
2022/04/23 11:40:46;;;;;;;9.32;4.82;;;;;;;24.77;65.77;99268.72;5072182;28;20463;-71
2022/04/23 11:43:26;;;;;;;8.73;5.47;;;;;;;25.64;65.57;99259.06;5054431;28;20526;-73
2022/04/23 11:45:57;;;;;;;6.93;4.80;;;;;;;25.94;63.27;99181.31;5054624;28;20028;-73